sensor_id;sensor_type;location;lat;lon;timestamp;temperature;humidity
5940;DHT22;2995;-31.998;115.906;2023-05-10T00:02:15;16.90;99.90
5940;DHT22;2995;-31.998;115.906;2023-05-10T00:04:47;16.90;99.90
5940;DHT22;2995;-31.998;115.906;2023-05-10T00:07:18;16.90;99.90
5940;DHT22;2995;-31.998;115.906;2023-05-10T00:09:49;16.80;99.90
5940;DHT22;2995;-31.998;115.906;2023-05-10T00:12:23;16.90;99.90
5940;DHT22;2995;-31.998;115.906;2023-05-10T00:14:54;16.80;99.90
5940;DHT22;2995;-31.998;115.906;2023-05-10T00:17:25;16.80;99.90
5940;DHT22;2995;-31.998;115.906;2023-05-10T00:19:56;16.60;99.90
5940;DHT22;2995;-31.998;115.906;2023-05-10T00:22:28;16.70;99.90
5940;DHT22;2995;-31.998;115.906;2023-05-10T00:24:59;16.60;99.90
5940;DHT22;2995;-31.998;115.906;2023-05-10T00:27:32;16.50;99.90
5940;DHT22;2995;-31.998;115.906;2023-05-10T00:30:04;16.60;99.90
5940;DHT22;2995;-31.998;115.906;2023-05-10T00:32:35;16.60;99.90
5940;DHT22;2995;-31.998;115.906;2023-05-10T00:35:07;16.60;99.90
5940;DHT22;2995;-31.998;115.906;2023-05-10T00:37:38;16.60;99.90
5940;DHT22;2995;-31.998;115.906;2023-05-10T00:40:10;16.60;99.90
5940;DHT22;2995;-31.998;115.906;2023-05-10T00:42:43;16.60;99.90
5940;DHT22;2995;-31.998;115.906;2023-05-10T00:45:14;16.50;99.90
5940;DHT22;2995;-31.998;115.906;2023-05-10T00:47:45;16.50;99.90
5940;DHT22;2995;-31.998;115.906;2023-05-10T00:50:17;16.50;99.90
5940;DHT22;2995;-31.998;115.906;2023-05-10T00:52:48;16.60;99.90
5940;DHT22;2995;-31.998;115.906;2023-05-10T00:55:20;16.70;99.90
5940;DHT22;2995;-31.998;115.906;2023-05-10T00:57:53;16.70;99.90
5940;DHT22;2995;-31.998;115.906;2023-05-10T01:00:25;16.80;99.90
5940;DHT22;2995;-31.998;115.906;2023-05-10T01:02:56;17.00;99.90
5940;DHT22;2995;-31.998;115.906;2023-05-10T01:05:27;17.00;99.90
5940;DHT22;2995;-31.998;115.906;2023-05-10T01:07:59;17.20;99.90
5940;DHT22;2995;-31.998;115.906;2023-05-10T01:10:31;17.10;99.90
5940;DHT22;2995;-31.998;115.906;2023-05-10T01:13:04;17.10;99.90
5940;DHT22;2995;-31.998;115.906;2023-05-10T01:15:36;17.30;99.90
5940;DHT22;2995;-31.998;115.906;2023-05-10T01:18:09;17.20;99.90
5940;DHT22;2995;-31.998;115.906;2023-05-10T01:20:43;17.20;99.90
5940;DHT22;2995;-31.998;115.906;2023-05-10T01:23:36;17.20;99.90
5940;DHT22;2995;-31.998;115.906;2023-05-10T01:26:56;17.30;99.90
5940;DHT22;2995;-31.998;115.906;2023-05-10T01:29:55;17.30;99.90
5940;DHT22;2995;-31.998;115.906;2023-05-10T01:32:37;17.10;99.90
5940;DHT22;2995;-31.998;115.906;2023-05-10T01:35:14;17.20;99.90
5940;DHT22;2995;-31.998;115.906;2023-05-10T01:37:50;17.20;99.90
5940;DHT22;2995;-31.998;115.906;2023-05-10T01:40:29;17.40;99.90
5940;DHT22;2995;-31.998;115.906;2023-05-10T01:43:02;17.50;99.90
5940;DHT22;2995;-31.998;115.906;2023-05-10T01:45:38;17.60;99.90
5940;DHT22;2995;-31.998;115.906;2023-05-10T01:48:12;17.60;99.90
5940;DHT22;2995;-31.998;115.906;2023-05-10T01:50:46;17.70;99.90
5940;DHT22;2995;-31.998;115.906;2023-05-10T01:53:19;17.70;99.90
5940;DHT22;2995;-31.998;115.906;2023-05-10T01:55:53;17.80;99.90
5940;DHT22;2995;-31.998;115.906;2023-05-10T01:58:29;17.80;99.90
5940;DHT22;2995;-31.998;115.906;2023-05-10T02:01:03;17.70;99.90
5940;DHT22;2995;-31.998;115.906;2023-05-10T02:03:37;17.70;99.90
5940;DHT22;2995;-31.998;115.906;2023-05-10T02:06:10;17.60;99.90
5940;DHT22;2995;-31.998;115.906;2023-05-10T02:08:44;17.60;99.90
5940;DHT22;2995;-31.998;115.906;2023-05-10T02:11:16;17.50;99.90
5940;DHT22;2995;-31.998;115.906;2023-05-10T02:13:49;17.40;99.90
5940;DHT22;2995;-31.998;115.906;2023-05-10T02:16:23;17.50;99.90
5940;DHT22;2995;-31.998;115.906;2023-05-10T02:18:58;17.50;99.90
5940;DHT22;2995;-31.998;115.906;2023-05-10T02:21:31;17.50;99.90
5940;DHT22;2995;-31.998;115.906;2023-05-10T02:24:04;17.60;99.90
5940;DHT22;2995;-31.998;115.906;2023-05-10T02:26:37;17.80;99.90
5940;DHT22;2995;-31.998;115.906;2023-05-10T02:29:09;17.80;99.90
5940;DHT22;2995;-31.998;115.906;2023-05-10T02:31:41;17.90;99.90
5940;DHT22;2995;-31.998;115.906;2023-05-10T02:34:15;18.00;99.90
5940;DHT22;2995;-31.998;115.906;2023-05-10T02:36:46;18.10;99.90
5940;DHT22;2995;-31.998;115.906;2023-05-10T02:39:19;17.80;99.90
5940;DHT22;2995;-31.998;115.906;2023-05-10T02:41:51;18.00;99.90
5940;DHT22;2995;-31.998;115.906;2023-05-10T02:44:24;18.10;99.90
5940;DHT22;2995;-31.998;115.906;2023-05-10T02:46:59;17.90;99.90
5940;DHT22;2995;-31.998;115.906;2023-05-10T02:49:32;17.90;99.90
5940;DHT22;2995;-31.998;115.906;2023-05-10T02:52:06;18.00;99.90
5940;DHT22;2995;-31.998;115.906;2023-05-10T02:54:45;18.00;99.90
5940;DHT22;2995;-31.998;115.906;2023-05-10T02:57:17;18.10;99.90
5940;DHT22;2995;-31.998;115.906;2023-05-10T02:59:51;18.10;99.90
5940;DHT22;2995;-31.998;115.906;2023-05-10T03:02:22;18.20;99.90
5940;DHT22;2995;-31.998;115.906;2023-05-10T03:04:56;18.30;99.90
5940;DHT22;2995;-31.998;115.906;2023-05-10T03:07:27;18.30;99.90
5940;DHT22;2995;-31.998;115.906;2023-05-10T03:09:58;18.30;99.90
5940;DHT22;2995;-31.998;115.906;2023-05-10T03:12:41;18.20;99.90
5940;DHT22;2995;-31.998;115.906;2023-05-10T03:15:22;18.20;99.90
5940;DHT22;2995;-31.998;115.906;2023-05-10T03:18:00;18.30;99.90
5940;DHT22;2995;-31.998;115.906;2023-05-10T03:20:47;18.30;99.90
5940;DHT22;2995;-31.998;115.906;2023-05-10T03:23:25;18.30;99.90
5940;DHT22;2995;-31.998;115.906;2023-05-10T03:25:57;18.40;99.90
5940;DHT22;2995;-31.998;115.906;2023-05-10T03:28:31;18.40;99.90
5940;DHT22;2995;-31.998;115.906;2023-05-10T03:31:05;18.40;99.90
5940;DHT22;2995;-31.998;115.906;2023-05-10T03:33:42;18.30;99.90
5940;DHT22;2995;-31.998;115.906;2023-05-10T03:36:18;18.20;99.90
5940;DHT22;2995;-31.998;115.906;2023-05-10T03:38:49;18.20;99.90
5940;DHT22;2995;-31.998;115.906;2023-05-10T03:41:20;18.10;99.90
5940;DHT22;2995;-31.998;115.906;2023-05-10T03:43:53;18.10;99.90
5940;DHT22;2995;-31.998;115.906;2023-05-10T03:46:24;18.00;99.90
5940;DHT22;2995;-31.998;115.906;2023-05-10T03:48:55;18.00;99.90
5940;DHT22;2995;-31.998;115.906;2023-05-10T03:51:28;18.20;99.90
5940;DHT22;2995;-31.998;115.906;2023-05-10T03:54:00;18.20;99.90
5940;DHT22;2995;-31.998;115.906;2023-05-10T03:56:31;18.30;99.90
5940;DHT22;2995;-31.998;115.906;2023-05-10T03:59:02;18.40;99.90
5940;DHT22;2995;-31.998;115.906;2023-05-10T04:01:37;18.50;99.90
5940;DHT22;2995;-31.998;115.906;2023-05-10T04:04:08;18.60;99.90
5940;DHT22;2995;-31.998;115.906;2023-05-10T04:06:41;18.70;99.90
5940;DHT22;2995;-31.998;115.906;2023-05-10T04:09:13;18.90;99.90
5940;DHT22;2995;-31.998;115.906;2023-05-10T04:11:44;18.90;99.90
5940;DHT22;2995;-31.998;115.906;2023-05-10T04:14:15;18.90;99.90
5940;DHT22;2995;-31.998;115.906;2023-05-10T04:16:47;18.70;99.90
5940;DHT22;2995;-31.998;115.906;2023-05-10T04:19:18;18.80;99.90
5940;DHT22;2995;-31.998;115.906;2023-05-10T04:21:51;18.70;99.90
5940;DHT22;2995;-31.998;115.906;2023-05-10T04:24:22;18.70;99.90
5940;DHT22;2995;-31.998;115.906;2023-05-10T04:26:55;18.90;99.90
5940;DHT22;2995;-31.998;115.906;2023-05-10T04:29:26;19.00;99.90
5940;DHT22;2995;-31.998;115.906;2023-05-10T04:31:57;19.10;99.90
5940;DHT22;2995;-31.998;115.906;2023-05-10T04:34:28;18.90;99.90
5940;DHT22;2995;-31.998;115.906;2023-05-10T04:37:04;18.90;99.90
5940;DHT22;2995;-31.998;115.906;2023-05-10T04:39:35;18.90;99.90
5940;DHT22;2995;-31.998;115.906;2023-05-10T04:42:07;19.00;99.90
5940;DHT22;2995;-31.998;115.906;2023-05-10T04:44:38;19.00;99.90
5940;DHT22;2995;-31.998;115.906;2023-05-10T04:47:09;19.00;99.90
5940;DHT22;2995;-31.998;115.906;2023-05-10T04:49:41;19.10;99.90
5940;DHT22;2995;-31.998;115.906;2023-05-10T04:52:14;19.10;99.90
5940;DHT22;2995;-31.998;115.906;2023-05-10T04:54:45;19.20;99.90
5940;DHT22;2995;-31.998;115.906;2023-05-10T04:57:17;19.40;99.90
5940;DHT22;2995;-31.998;115.906;2023-05-10T04:59:48;19.60;99.90
5940;DHT22;2995;-31.998;115.906;2023-05-10T05:02:19;19.70;99.90
5940;DHT22;2995;-31.998;115.906;2023-05-10T05:04:51;19.70;99.90
5940;DHT22;2995;-31.998;115.906;2023-05-10T05:07:24;19.70;99.90
5940;DHT22;2995;-31.998;115.906;2023-05-10T05:09:56;19.60;99.90
5940;DHT22;2995;-31.998;115.906;2023-05-10T05:12:27;19.60;99.90
5940;DHT22;2995;-31.998;115.906;2023-05-10T05:14:58;19.60;99.90
5940;DHT22;2995;-31.998;115.906;2023-05-10T05:17:31;19.50;99.90
5940;DHT22;2995;-31.998;115.906;2023-05-10T05:20:02;19.30;99.90
5940;DHT22;2995;-31.998;115.906;2023-05-10T05:22:36;19.40;99.90
5940;DHT22;2995;-31.998;115.906;2023-05-10T05:25:08;19.30;99.90
5940;DHT22;2995;-31.998;115.906;2023-05-10T05:27:40;19.30;99.90
5940;DHT22;2995;-31.998;115.906;2023-05-10T05:30:12;19.30;99.90
5940;DHT22;2995;-31.998;115.906;2023-05-10T05:32:43;19.20;99.90
5940;DHT22;2995;-31.998;115.906;2023-05-10T05:35:15;19.30;99.90
5940;DHT22;2995;-31.998;115.906;2023-05-10T05:37:48;19.40;99.90
5940;DHT22;2995;-31.998;115.906;2023-05-10T05:40:19;19.30;99.90
5940;DHT22;2995;-31.998;115.906;2023-05-10T05:42:51;19.20;99.90
5940;DHT22;2995;-31.998;115.906;2023-05-10T05:45:22;19.30;99.90
5940;DHT22;2995;-31.998;115.906;2023-05-10T05:47:53;19.60;99.90
5940;DHT22;2995;-31.998;115.906;2023-05-10T05:50:24;19.60;99.90
5940;DHT22;2995;-31.998;115.906;2023-05-10T05:52:57;19.70;99.90
5940;DHT22;2995;-31.998;115.906;2023-05-10T05:55:29;19.60;99.90
5940;DHT22;2995;-31.998;115.906;2023-05-10T05:58:00;19.50;99.90
5940;DHT22;2995;-31.998;115.906;2023-05-10T06:00:31;19.20;99.90
5940;DHT22;2995;-31.998;115.906;2023-05-10T06:03:02;19.10;99.90
5940;DHT22;2995;-31.998;115.906;2023-05-10T06:05:34;19.00;99.90
5940;DHT22;2995;-31.998;115.906;2023-05-10T06:08:07;19.00;99.90
5940;DHT22;2995;-31.998;115.906;2023-05-10T06:10:38;19.10;99.90
5940;DHT22;2995;-31.998;115.906;2023-05-10T06:13:10;19.00;99.90
5940;DHT22;2995;-31.998;115.906;2023-05-10T06:15:41;19.00;99.90
5940;DHT22;2995;-31.998;115.906;2023-05-10T06:18:12;19.10;99.90
5940;DHT22;2995;-31.998;115.906;2023-05-10T06:20:44;19.30;99.90
5940;DHT22;2995;-31.998;115.906;2023-05-10T06:23:17;19.20;99.90
5940;DHT22;2995;-31.998;115.906;2023-05-10T06:25:48;19.20;99.90
5940;DHT22;2995;-31.998;115.906;2023-05-10T06:28:19;19.20;99.90
5940;DHT22;2995;-31.998;115.906;2023-05-10T06:30:51;19.20;99.90
5940;DHT22;2995;-31.998;115.906;2023-05-10T06:33:22;19.20;99.90
5940;DHT22;2995;-31.998;115.906;2023-05-10T06:35:56;19.20;99.90
5940;DHT22;2995;-31.998;115.906;2023-05-10T06:38:29;19.30;99.90
5940;DHT22;2995;-31.998;115.906;2023-05-10T06:41:00;19.50;99.90
5940;DHT22;2995;-31.998;115.906;2023-05-10T06:43:31;19.50;99.90
5940;DHT22;2995;-31.998;115.906;2023-05-10T06:46:02;19.30;99.90
5940;DHT22;2995;-31.998;115.906;2023-05-10T06:48:34;19.30;99.90
5940;DHT22;2995;-31.998;115.906;2023-05-10T06:51:05;19.40;99.90
5940;DHT22;2995;-31.998;115.906;2023-05-10T06:53:38;19.30;99.90
5940;DHT22;2995;-31.998;115.906;2023-05-10T06:56:10;19.30;99.90
5940;DHT22;2995;-31.998;115.906;2023-05-10T06:58:41;19.20;99.90
5940;DHT22;2995;-31.998;115.906;2023-05-10T07:01:12;19.00;99.90
5940;DHT22;2995;-31.998;115.906;2023-05-10T07:03:44;18.70;99.90
5940;DHT22;2995;-31.998;115.906;2023-05-10T07:06:15;18.50;99.90
5940;DHT22;2995;-31.998;115.906;2023-05-10T07:08:48;18.30;99.90
5940;DHT22;2995;-31.998;115.906;2023-05-10T07:11:20;18.30;99.90
5940;DHT22;2995;-31.998;115.906;2023-05-10T07:13:51;18.30;99.90
5940;DHT22;2995;-31.998;115.906;2023-05-10T07:16:22;18.20;99.90
5940;DHT22;2995;-31.998;115.906;2023-05-10T07:18:53;17.90;99.90
5940;DHT22;2995;-31.998;115.906;2023-05-10T07:21:25;17.90;99.90
5940;DHT22;2995;-31.998;115.906;2023-05-10T07:23:58;17.60;99.90
5940;DHT22;2995;-31.998;115.906;2023-05-10T07:26:29;17.60;99.90
5940;DHT22;2995;-31.998;115.906;2023-05-10T07:29:01;17.50;99.90
5940;DHT22;2995;-31.998;115.906;2023-05-10T07:31:32;17.70;99.90
5940;DHT22;2995;-31.998;115.906;2023-05-10T07:34:03;17.60;99.90
5940;DHT22;2995;-31.998;115.906;2023-05-10T07:36:34;17.50;99.90
5940;DHT22;2995;-31.998;115.906;2023-05-10T07:39:08;17.60;99.90
5940;DHT22;2995;-31.998;115.906;2023-05-10T07:41:39;17.60;99.90
5940;DHT22;2995;-31.998;115.906;2023-05-10T07:44:10;17.70;99.90
5940;DHT22;2995;-31.998;115.906;2023-05-10T07:46:42;17.80;99.90
5940;DHT22;2995;-31.998;115.906;2023-05-10T07:49:13;17.90;99.90
5940;DHT22;2995;-31.998;115.906;2023-05-10T07:51:44;17.90;99.90
5940;DHT22;2995;-31.998;115.906;2023-05-10T07:54:18;17.80;99.90
5940;DHT22;2995;-31.998;115.906;2023-05-10T07:56:49;17.70;99.90
5940;DHT22;2995;-31.998;115.906;2023-05-10T07:59:22;17.60;99.90
5940;DHT22;2995;-31.998;115.906;2023-05-10T08:01:53;17.60;99.90
5940;DHT22;2995;-31.998;115.906;2023-05-10T08:04:24;17.50;99.90
5940;DHT22;2995;-31.998;115.906;2023-05-10T08:06:55;17.60;99.90
5940;DHT22;2995;-31.998;115.906;2023-05-10T08:09:29;17.60;99.90
5940;DHT22;2995;-31.998;115.906;2023-05-10T08:12:00;17.60;99.90
5940;DHT22;2995;-31.998;115.906;2023-05-10T08:14:31;17.60;99.90
5940;DHT22;2995;-31.998;115.906;2023-05-10T08:17:04;17.50;99.90
5940;DHT22;2995;-31.998;115.906;2023-05-10T08:19:35;17.40;99.90
5940;DHT22;2995;-31.998;115.906;2023-05-10T08:22:07;17.50;99.90
5940;DHT22;2995;-31.998;115.906;2023-05-10T08:24:40;17.30;99.90
5940;DHT22;2995;-31.998;115.906;2023-05-10T08:27:11;17.30;99.90
5940;DHT22;2995;-31.998;115.906;2023-05-10T08:29:42;17.20;99.90
5940;DHT22;2995;-31.998;115.906;2023-05-10T08:32:13;17.30;99.90
5940;DHT22;2995;-31.998;115.906;2023-05-10T08:34:45;17.30;99.90
5940;DHT22;2995;-31.998;115.906;2023-05-10T08:37:16;17.30;99.90
5940;DHT22;2995;-31.998;115.906;2023-05-10T08:39:49;17.20;99.90
5940;DHT22;2995;-31.998;115.906;2023-05-10T08:42:21;17.30;99.90
5940;DHT22;2995;-31.998;115.906;2023-05-10T08:44:53;17.30;99.90
5940;DHT22;2995;-31.998;115.906;2023-05-10T08:47:26;17.30;99.90
5940;DHT22;2995;-31.998;115.906;2023-05-10T08:49:58;17.30;99.90
5940;DHT22;2995;-31.998;115.906;2023-05-10T08:52:31;17.20;99.90
5940;DHT22;2995;-31.998;115.906;2023-05-10T08:55:05;17.20;99.90
5940;DHT22;2995;-31.998;115.906;2023-05-10T08:57:37;17.10;99.90
5940;DHT22;2995;-31.998;115.906;2023-05-10T09:00:09;17.10;99.90
5940;DHT22;2995;-31.998;115.906;2023-05-10T09:02:41;17.10;99.90
5940;DHT22;2995;-31.998;115.906;2023-05-10T09:05:14;17.10;99.90
5940;DHT22;2995;-31.998;115.906;2023-05-10T09:07:45;17.10;99.90
5940;DHT22;2995;-31.998;115.906;2023-05-10T09:10:19;17.10;99.90
5940;DHT22;2995;-31.998;115.906;2023-05-10T09:12:50;17.00;99.90
5940;DHT22;2995;-31.998;115.906;2023-05-10T09:15:21;17.00;99.90
5940;DHT22;2995;-31.998;115.906;2023-05-10T09:17:53;17.00;99.90
5940;DHT22;2995;-31.998;115.906;2023-05-10T09:20:27;16.90;99.90
5940;DHT22;2995;-31.998;115.906;2023-05-10T09:22:59;16.90;99.90
5940;DHT22;2995;-31.998;115.906;2023-05-10T09:25:32;16.70;99.90
5940;DHT22;2995;-31.998;115.906;2023-05-10T09:28:03;16.70;99.90
5940;DHT22;2995;-31.998;115.906;2023-05-10T09:30:37;16.60;99.90
5940;DHT22;2995;-31.998;115.906;2023-05-10T09:33:08;16.60;99.90
5940;DHT22;2995;-31.998;115.906;2023-05-10T09:35:39;16.50;99.90
5940;DHT22;2995;-31.998;115.906;2023-05-10T09:38:10;16.50;99.90
5940;DHT22;2995;-31.998;115.906;2023-05-10T09:40:52;16.50;99.90
5940;DHT22;2995;-31.998;115.906;2023-05-10T09:43:25;16.50;99.90
5940;DHT22;2995;-31.998;115.906;2023-05-10T09:45:56;16.40;99.90
5940;DHT22;2995;-31.998;115.906;2023-05-10T09:48:28;16.30;99.90
5940;DHT22;2995;-31.998;115.906;2023-05-10T09:50:59;16.30;99.90
5940;DHT22;2995;-31.998;115.906;2023-05-10T09:53:30;16.40;99.90
5940;DHT22;2995;-31.998;115.906;2023-05-10T09:56:03;16.30;99.90
5940;DHT22;2995;-31.998;115.906;2023-05-10T09:58:37;16.30;99.90
5940;DHT22;2995;-31.998;115.906;2023-05-10T10:01:12;16.30;99.90
5940;DHT22;2995;-31.998;115.906;2023-05-10T10:03:44;16.30;99.90
5940;DHT22;2995;-31.998;115.906;2023-05-10T10:06:20;16.30;99.90
5940;DHT22;2995;-31.998;115.906;2023-05-10T10:08:51;16.20;99.90
5940;DHT22;2995;-31.998;115.906;2023-05-10T10:11:26;16.20;99.90
5940;DHT22;2995;-31.998;115.906;2023-05-10T10:13:57;16.10;99.90
5940;DHT22;2995;-31.998;115.906;2023-05-10T10:16:30;16.10;99.90
5940;DHT22;2995;-31.998;115.906;2023-05-10T10:19:01;16.20;99.90
5940;DHT22;2995;-31.998;115.906;2023-05-10T10:21:34;16.10;99.90
5940;DHT22;2995;-31.998;115.906;2023-05-10T10:24:05;16.20;99.90
5940;DHT22;2995;-31.998;115.906;2023-05-10T10:26:39;16.20;99.90
5940;DHT22;2995;-31.998;115.906;2023-05-10T10:29:20;16.10;99.90
5940;DHT22;2995;-31.998;115.906;2023-05-10T10:32:07;16.00;99.90
5940;DHT22;2995;-31.998;115.906;2023-05-10T10:34:41;16.10;99.90
5940;DHT22;2995;-31.998;115.906;2023-05-10T10:37:12;16.00;99.90
5940;DHT22;2995;-31.998;115.906;2023-05-10T10:39:43;16.00;99.90
5940;DHT22;2995;-31.998;115.906;2023-05-10T10:42:46;16.00;99.90
5940;DHT22;2995;-31.998;115.906;2023-05-10T10:45:18;16.00;99.90
5940;DHT22;2995;-31.998;115.906;2023-05-10T10:47:50;16.00;99.90
5940;DHT22;2995;-31.998;115.906;2023-05-10T10:50:24;15.90;99.90
5940;DHT22;2995;-31.998;115.906;2023-05-10T10:53:11;15.90;99.90
5940;DHT22;2995;-31.998;115.906;2023-05-10T10:55:49;15.90;99.90
5940;DHT22;2995;-31.998;115.906;2023-05-10T10:58:48;15.90;99.90
5940;DHT22;2995;-31.998;115.906;2023-05-10T11:01:21;16.00;99.90
5940;DHT22;2995;-31.998;115.906;2023-05-10T11:04:19;16.10;99.90
5940;DHT22;2995;-31.998;115.906;2023-05-10T11:06:50;16.20;99.90
5940;DHT22;2995;-31.998;115.906;2023-05-10T11:09:26;16.20;99.90
5940;DHT22;2995;-31.998;115.906;2023-05-10T11:11:57;16.20;99.90
5940;DHT22;2995;-31.998;115.906;2023-05-10T11:14:33;16.20;99.90
5940;DHT22;2995;-31.998;115.906;2023-05-10T11:17:24;16.20;99.90
5940;DHT22;2995;-31.998;115.906;2023-05-10T11:20:07;16.20;99.90
5940;DHT22;2995;-31.998;115.906;2023-05-10T11:22:53;16.20;99.90
5940;DHT22;2995;-31.998;115.906;2023-05-10T11:25:28;16.20;99.90
5940;DHT22;2995;-31.998;115.906;2023-05-10T11:28:04;16.00;99.90
5940;DHT22;2995;-31.998;115.906;2023-05-10T11:30:38;16.00;99.90
5940;DHT22;2995;-31.998;115.906;2023-05-10T11:33:14;15.90;99.90
5940;DHT22;2995;-31.998;115.906;2023-05-10T11:35:45;15.90;99.90
5940;DHT22;2995;-31.998;115.906;2023-05-10T11:38:16;15.90;99.90
5940;DHT22;2995;-31.998;115.906;2023-05-10T11:40:49;15.80;99.90
5940;DHT22;2995;-31.998;115.906;2023-05-10T11:43:28;15.80;99.90
5940;DHT22;2995;-31.998;115.906;2023-05-10T11:46:01;15.80;99.90
5940;DHT22;2995;-31.998;115.906;2023-05-10T11:48:32;15.80;99.90
5940;DHT22;2995;-31.998;115.906;2023-05-10T11:51:03;15.80;99.90
5940;DHT22;2995;-31.998;115.906;2023-05-10T11:53:35;15.70;99.90
5940;DHT22;2995;-31.998;115.906;2023-05-10T11:56:06;15.60;99.90
5940;DHT22;2995;-31.998;115.906;2023-05-10T11:58:38;15.70;99.90
5940;DHT22;2995;-31.998;115.906;2023-05-10T12:01:12;15.60;99.90
5940;DHT22;2995;-31.998;115.906;2023-05-10T12:03:43;15.70;99.90
5940;DHT22;2995;-31.998;115.906;2023-05-10T12:06:15;15.70;99.90
5940;DHT22;2995;-31.998;115.906;2023-05-10T12:08:47;15.70;99.90
5940;DHT22;2995;-31.998;115.906;2023-05-10T12:11:23;15.70;99.90
5940;DHT22;2995;-31.998;115.906;2023-05-10T12:13:55;15.60;99.90
5940;DHT22;2995;-31.998;115.906;2023-05-10T12:16:30;15.60;99.90
5940;DHT22;2995;-31.998;115.906;2023-05-10T12:19:01;15.60;99.90
5940;DHT22;2995;-31.998;115.906;2023-05-10T12:21:34;15.60;99.90
5940;DHT22;2995;-31.998;115.906;2023-05-10T12:24:06;15.70;99.90
5940;DHT22;2995;-31.998;115.906;2023-05-10T12:26:38;15.70;99.90
5940;DHT22;2995;-31.998;115.906;2023-05-10T12:29:16;15.80;99.90
5940;DHT22;2995;-31.998;115.906;2023-05-10T12:31:54;15.80;99.90
5940;DHT22;2995;-31.998;115.906;2023-05-10T12:34:31;15.80;99.90
5940;DHT22;2995;-31.998;115.906;2023-05-10T12:37:03;15.80;99.90
5940;DHT22;2995;-31.998;115.906;2023-05-10T12:39:41;15.80;99.90
5940;DHT22;2995;-31.998;115.906;2023-05-10T12:42:14;15.80;99.90
5940;DHT22;2995;-31.998;115.906;2023-05-10T12:44:45;15.80;99.90
5940;DHT22;2995;-31.998;115.906;2023-05-10T12:47:18;15.70;99.90
5940;DHT22;2995;-31.998;115.906;2023-05-10T12:49:49;15.70;99.90
5940;DHT22;2995;-31.998;115.906;2023-05-10T12:52:21;15.80;99.90
5940;DHT22;2995;-31.998;115.906;2023-05-10T12:54:52;15.70;99.90
5940;DHT22;2995;-31.998;115.906;2023-05-10T12:57:24;15.60;99.90
5940;DHT22;2995;-31.998;115.906;2023-05-10T12:59:55;15.60;99.90
5940;DHT22;2995;-31.998;115.906;2023-05-10T13:02:30;15.50;99.90
5940;DHT22;2995;-31.998;115.906;2023-05-10T13:05:01;15.50;99.90
5940;DHT22;2995;-31.998;115.906;2023-05-10T13:07:33;15.40;99.90
5940;DHT22;2995;-31.998;115.906;2023-05-10T13:10:06;15.40;99.90
5940;DHT22;2995;-31.998;115.906;2023-05-10T13:12:38;15.40;99.90
5940;DHT22;2995;-31.998;115.906;2023-05-10T13:15:09;15.40;99.90
5940;DHT22;2995;-31.998;115.906;2023-05-10T13:17:43;15.40;99.90
5940;DHT22;2995;-31.998;115.906;2023-05-10T13:20:14;15.30;99.90
5940;DHT22;2995;-31.998;115.906;2023-05-10T13:22:45;15.30;99.90
5940;DHT22;2995;-31.998;115.906;2023-05-10T13:25:17;15.40;99.90
5940;DHT22;2995;-31.998;115.906;2023-05-10T13:27:48;15.30;99.90
5940;DHT22;2995;-31.998;115.906;2023-05-10T13:30:19;15.30;99.90
5940;DHT22;2995;-31.998;115.906;2023-05-10T13:32:53;15.30;99.90
5940;DHT22;2995;-31.998;115.906;2023-05-10T13:35:25;15.40;99.90
5940;DHT22;2995;-31.998;115.906;2023-05-10T13:37:56;15.30;99.90
5940;DHT22;2995;-31.998;115.906;2023-05-10T13:40:27;15.30;99.90
5940;DHT22;2995;-31.998;115.906;2023-05-10T13:42:59;15.20;99.90
5940;DHT22;2995;-31.998;115.906;2023-05-10T13:45:30;15.20;99.90
5940;DHT22;2995;-31.998;115.906;2023-05-10T13:48:03;15.20;99.90
5940;DHT22;2995;-31.998;115.906;2023-05-10T13:50:34;15.10;99.90
5940;DHT22;2995;-31.998;115.906;2023-05-10T13:53:06;15.10;99.90
5940;DHT22;2995;-31.998;115.906;2023-05-10T13:55:37;15.10;99.90
5940;DHT22;2995;-31.998;115.906;2023-05-10T13:58:08;15.20;99.90
5940;DHT22;2995;-31.998;115.906;2023-05-10T14:00:40;15.20;99.90
5940;DHT22;2995;-31.998;115.906;2023-05-10T14:03:14;15.20;99.90
5940;DHT22;2995;-31.998;115.906;2023-05-10T14:05:45;15.20;99.90
5940;DHT22;2995;-31.998;115.906;2023-05-10T14:08:16;15.20;99.90
5940;DHT22;2995;-31.998;115.906;2023-05-10T14:10:48;15.10;99.90
5940;DHT22;2995;-31.998;115.906;2023-05-10T14:13:20;15.10;99.90
5940;DHT22;2995;-31.998;115.906;2023-05-10T14:15:51;15.10;99.90
5940;DHT22;2995;-31.998;115.906;2023-05-10T14:18:25;15.10;99.90
5940;DHT22;2995;-31.998;115.906;2023-05-10T14:20:56;15.10;99.90
5940;DHT22;2995;-31.998;115.906;2023-05-10T14:23:28;15.10;99.90
5940;DHT22;2995;-31.998;115.906;2023-05-10T14:25:59;15.10;99.90
5940;DHT22;2995;-31.998;115.906;2023-05-10T14:28:30;15.00;99.90
5940;DHT22;2995;-31.998;115.906;2023-05-10T14:31:02;15.00;99.90
5940;DHT22;2995;-31.998;115.906;2023-05-10T14:33:35;14.90;99.90
5940;DHT22;2995;-31.998;115.906;2023-05-10T14:36:07;14.90;99.90
5940;DHT22;2995;-31.998;115.906;2023-05-10T14:38:38;14.80;99.90
5940;DHT22;2995;-31.998;115.906;2023-05-10T14:41:09;14.80;99.90
5940;DHT22;2995;-31.998;115.906;2023-05-10T14:43:42;14.90;99.90
5940;DHT22;2995;-31.998;115.906;2023-05-10T14:46:13;14.90;99.90
5940;DHT22;2995;-31.998;115.906;2023-05-10T14:48:47;14.80;99.90
5940;DHT22;2995;-31.998;115.906;2023-05-10T14:51:18;14.90;99.90
5940;DHT22;2995;-31.998;115.906;2023-05-10T14:53:50;14.90;99.90
5940;DHT22;2995;-31.998;115.906;2023-05-10T14:56:21;14.90;99.90
5940;DHT22;2995;-31.998;115.906;2023-05-10T14:58:53;14.90;99.90
5940;DHT22;2995;-31.998;115.906;2023-05-10T15:01:25;14.90;99.90
5940;DHT22;2995;-31.998;115.906;2023-05-10T15:03:58;14.80;99.90
5940;DHT22;2995;-31.998;115.906;2023-05-10T15:06:32;14.90;99.90
5940;DHT22;2995;-31.998;115.906;2023-05-10T15:09:04;15.00;99.90
5940;DHT22;2995;-31.998;115.906;2023-05-10T15:11:35;14.90;99.90
5940;DHT22;2995;-31.998;115.906;2023-05-10T15:14:06;14.90;99.90
5940;DHT22;2995;-31.998;115.906;2023-05-10T15:16:37;14.90;99.90
5940;DHT22;2995;-31.998;115.906;2023-05-10T15:19:11;14.90;99.90
5940;DHT22;2995;-31.998;115.906;2023-05-10T15:21:42;14.90;99.90
5940;DHT22;2995;-31.998;115.906;2023-05-10T15:24:13;14.70;99.90
5940;DHT22;2995;-31.998;115.906;2023-05-10T15:26:44;14.80;99.90
5940;DHT22;2995;-31.998;115.906;2023-05-10T15:29:15;14.60;99.90
5940;DHT22;2995;-31.998;115.906;2023-05-10T15:31:48;14.60;99.90
5940;DHT22;2995;-31.998;115.906;2023-05-10T15:34:22;14.60;99.90
5940;DHT22;2995;-31.998;115.906;2023-05-10T15:36:53;14.60;99.90
5940;DHT22;2995;-31.998;115.906;2023-05-10T15:39:24;14.50;99.90
5940;DHT22;2995;-31.998;115.906;2023-05-10T15:41:55;14.60;99.90
5940;DHT22;2995;-31.998;115.906;2023-05-10T15:44:27;14.60;99.90
5940;DHT22;2995;-31.998;115.906;2023-05-10T15:46:59;14.50;99.90
5940;DHT22;2995;-31.998;115.906;2023-05-10T15:49:32;14.50;99.90
5940;DHT22;2995;-31.998;115.906;2023-05-10T15:52:03;14.50;99.90